createdAt,value
2019-03-03T00:01:19.367Z,2.10
2019-03-03T00:04:07.612Z,2.23
2019-03-03T00:06:55.645Z,2.07
2019-03-03T00:09:43.738Z,2.03
2019-03-03T00:12:31.394Z,2.40
2019-03-03T00:15:19.414Z,2.13
2019-03-03T00:18:07.364Z,2.23
2019-03-03T00:20:55.240Z,2.30
2019-03-03T00:23:42.805Z,2.10
2019-03-03T00:26:31.338Z,2.53
2019-03-03T00:29:19.503Z,2.73
2019-03-03T00:32:07.423Z,2.23
2019-03-03T00:34:55.132Z,2.20
2019-03-03T00:38:02.019Z,2.10
2019-03-03T00:41:21.690Z,2.60
2019-03-03T00:44:28.250Z,2.40
2019-03-03T00:47:25.527Z,2.60
2019-03-03T00:50:24.794Z,2.30
2019-03-03T00:53:22.598Z,2.10
2019-03-03T00:56:19.625Z,2.07
2019-03-03T00:59:14.172Z,1.90
2019-03-03T01:02:20.189Z,2.10
2019-03-03T01:05:36.408Z,2.80
2019-03-03T01:08:49.270Z,2.30
2019-03-03T01:11:52.561Z,2.30
2019-03-03T01:15:05.463Z,2.47
2019-03-03T01:18:11.258Z,2.40
2019-03-03T01:21:04.348Z,2.27
2019-03-03T01:24:10.474Z,2.47
2019-03-03T01:26:58.634Z,2.60
2019-03-03T01:29:46.950Z,2.10
2019-03-03T01:32:35.160Z,2.23
2019-03-03T01:35:23.062Z,2.10
2019-03-03T01:38:11.343Z,2.83
2019-03-03T01:40:59.528Z,2.50
2019-03-03T01:43:47.440Z,2.20
2019-03-03T01:46:35.358Z,2.30
2019-03-03T01:49:23.591Z,2.30
2019-03-03T01:52:11.833Z,2.77
2019-03-03T01:54:59.769Z,2.70
2019-03-03T01:57:47.905Z,2.73
2019-03-03T02:00:35.973Z,2.40
2019-03-03T02:03:24.637Z,2.47
2019-03-03T02:06:12.782Z,2.70
2019-03-03T02:09:00.645Z,2.13
2019-03-03T02:11:48.482Z,2.30
2019-03-03T02:14:36.822Z,2.50
2019-03-03T02:17:25.151Z,2.33
2019-03-03T02:20:13.121Z,2.43
2019-03-03T02:23:01.012Z,2.20
2019-03-03T02:25:49.004Z,2.60
2019-03-03T02:28:36.985Z,3.20
2019-03-03T02:31:24.973Z,2.90
2019-03-03T02:34:12.862Z,2.87
2019-03-03T02:37:00.860Z,2.63
2019-03-03T02:39:48.791Z,2.97
2019-03-03T02:42:36.781Z,2.83
2019-03-03T02:45:24.971Z,2.80
2019-03-03T02:48:13.208Z,3.23
2019-03-03T02:51:01.204Z,3.37
2019-03-03T02:53:49.678Z,2.90
2019-03-03T02:56:37.563Z,3.23
2019-03-03T02:59:25.796Z,3.20
2019-03-03T03:02:33.481Z,2.90
2019-03-03T03:05:51.175Z,2.97
2019-03-03T03:08:56.509Z,2.97
2019-03-03T03:12:09.787Z,2.80
2019-03-03T03:15:29.046Z,2.80
2019-03-03T03:18:38.407Z,3.07
2019-03-03T03:21:43.938Z,2.70
2019-03-03T03:24:49.837Z,2.53
2019-03-03T03:27:47.745Z,2.20
2019-03-03T03:30:46.139Z,2.33
2019-03-03T03:33:51.655Z,2.30
2019-03-03T03:37:01.391Z,2.33
2019-03-03T03:40:14.427Z,1.80
2019-03-03T03:43:12.131Z,2.20
2019-03-03T03:46:19.011Z,2.20
2019-03-03T03:49:23.283Z,2.37
2019-03-03T03:52:28.693Z,2.40
2019-03-03T03:55:54.363Z,2.30
2019-03-03T03:58:51.310Z,2.10
2019-03-03T04:01:58.500Z,1.97
2019-03-03T04:04:53.508Z,2.00
2019-03-03T04:07:51.538Z,2.30
2019-03-03T04:11:04.729Z,2.03
2019-03-03T04:14:05.795Z,2.33
2019-03-03T04:17:20.827Z,2.23
2019-03-03T04:20:21.802Z,2.10
2019-03-03T04:23:25.269Z,2.47
2019-03-03T04:26:24.326Z,2.20
2019-03-03T04:29:21.833Z,2.00
2019-03-03T04:32:25.080Z,2.00
2019-03-03T04:35:37.871Z,2.00
2019-03-03T04:38:40.685Z,2.10
2019-03-03T04:41:55.595Z,2.33
2019-03-03T04:44:49.291Z,2.53
2019-03-03T04:47:55.058Z,2.17
2019-03-03T04:51:01.734Z,2.60
2019-03-03T04:54:14.732Z,2.50
2019-03-03T04:57:25.245Z,2.20
2019-03-03T05:00:34.959Z,2.30
2019-03-03T05:03:29.706Z,2.50
2019-03-03T05:06:32.563Z,2.00
2019-03-03T05:09:39.137Z,1.87
2019-03-03T05:12:44.298Z,1.80
2019-03-03T05:15:57.427Z,2.40
2019-03-03T05:18:55.715Z,2.27
2019-03-03T05:21:43.640Z,2.60
2019-03-03T05:24:34.537Z,3.07
2019-03-03T05:27:21.394Z,3.40
2019-03-03T05:30:09.834Z,3.40
2019-03-03T05:32:57.854Z,3.23
2019-03-03T05:35:46.046Z,3.43
2019-03-03T05:38:34.287Z,3.83
2019-03-03T05:41:22.220Z,3.80
2019-03-03T05:44:10.602Z,4.30
2019-03-03T05:46:58.610Z,4.10
2019-03-03T05:49:46.604Z,4.80
2019-03-03T05:52:34.783Z,5.10
2019-03-03T05:55:23.110Z,6.60
2019-03-03T05:58:10.882Z,6.30
2019-03-03T06:00:58.766Z,6.23
2019-03-03T06:03:46.980Z,6.23
2019-03-03T06:06:34.972Z,6.53
2019-03-03T06:09:22.829Z,5.90
2019-03-03T06:12:11.341Z,7.27
2019-03-03T06:14:59.583Z,7.83
2019-03-03T06:17:47.501Z,7.10
2019-03-03T06:20:35.697Z,7.10
2019-03-03T06:23:23.821Z,7.70
2019-03-03T06:26:11.759Z,7.70
2019-03-03T06:29:00.301Z,8.57
2019-03-03T06:31:48.494Z,7.93
2019-03-03T06:34:36.586Z,8.03
2019-03-03T06:37:24.434Z,8.93
2019-03-03T06:40:12.714Z,8.87
2019-03-03T06:43:00.511Z,8.67
2019-03-03T06:45:48.456Z,8.97
2019-03-03T06:48:36.124Z,9.03
2019-03-03T06:51:24.687Z,8.43
2019-03-03T06:54:12.544Z,8.27
2019-03-03T06:57:00.442Z,7.10
2019-03-03T06:59:48.307Z,7.20
2019-03-03T07:02:36.898Z,6.53
2019-03-03T07:05:26.087Z,5.20
2019-03-03T07:08:14.118Z,6.00
2019-03-03T07:11:02.140Z,6.27
2019-03-03T07:13:50.426Z,6.17
2019-03-03T07:16:38.811Z,5.20
2019-03-03T07:19:26.853Z,4.67
2019-03-03T07:22:14.392Z,4.90
2019-03-03T07:25:02.182Z,4.43
2019-03-03T07:27:50.509Z,4.10
2019-03-03T07:30:38.516Z,5.27
2019-03-03T07:33:31.729Z,5.23
2019-03-03T07:36:19.617Z,4.37
2019-03-03T07:39:16.836Z,4.53
2019-03-03T07:42:04.902Z,4.10
2019-03-03T07:44:53.064Z,3.83
2019-03-03T07:47:41.225Z,4.33
2019-03-03T07:50:29.540Z,4.23
2019-03-03T07:53:17.487Z,4.60
2019-03-03T07:56:05.381Z,4.23
2019-03-03T07:58:53.440Z,3.67
2019-03-03T08:01:41.214Z,3.23
2019-03-03T08:04:29.158Z,3.47
2019-03-03T08:07:16.951Z,3.13
2019-03-03T08:10:05.200Z,3.70
2019-03-03T08:12:53.660Z,3.00
2019-03-03T08:15:41.898Z,3.20
2019-03-03T08:18:29.836Z,3.73
2019-03-03T08:21:18.136Z,3.00
2019-03-03T08:24:06.281Z,3.00
2019-03-03T08:26:54.167Z,2.93
2019-03-03T08:29:42.458Z,2.70
2019-03-03T08:32:30.308Z,2.47
2019-03-03T08:35:18.693Z,2.60
2019-03-03T08:38:06.503Z,2.73
2019-03-03T08:40:54.639Z,2.20
2019-03-03T08:43:54.105Z,1.97
2019-03-03T08:47:18.892Z,2.17
2019-03-03T08:50:12.214Z,1.70
2019-03-03T08:53:06.392Z,1.53
2019-03-03T08:56:03.656Z,1.90
2019-03-03T08:59:25.974Z,1.87
2019-03-03T09:02:31.118Z,1.63
2019-03-03T09:05:30.830Z,2.40
2019-03-03T09:08:36.318Z,2.00
2019-03-03T09:11:41.312Z,1.97
2019-03-03T09:14:47.606Z,2.10
2019-03-03T09:18:03.349Z,2.10
2019-03-03T09:21:10.039Z,2.13
2019-03-03T09:24:16.207Z,2.20
2019-03-03T09:27:11.583Z,2.00
2019-03-03T09:30:17.255Z,2.17
2019-03-03T09:33:40.094Z,2.00
2019-03-03T09:36:45.492Z,2.30
2019-03-03T09:40:09.739Z,2.27
2019-03-03T09:43:15.243Z,1.77
2019-03-03T09:46:34.364Z,1.93
2019-03-03T09:49:44.750Z,1.93
2019-03-03T09:52:57.935Z,1.80
2019-03-03T09:56:09.626Z,2.17
2019-03-03T09:59:15.163Z,1.67
2019-03-03T10:02:40.494Z,1.57
2019-03-03T10:05:53.190Z,1.80
2019-03-03T10:08:58.711Z,1.70
2019-03-03T10:12:08.603Z,1.53
2019-03-03T10:15:15.432Z,1.43
2019-03-03T10:18:18.648Z,1.70
2019-03-03T10:21:22.452Z,1.50
2019-03-03T10:24:23.124Z,1.50
2019-03-03T10:27:25.039Z,1.50
2019-03-03T10:30:33.008Z,1.53
2019-03-03T10:33:48.847Z,1.70
2019-03-03T10:36:54.719Z,1.47
2019-03-03T10:39:55.170Z,1.70
2019-03-03T10:43:13.795Z,1.53
2019-03-03T10:46:35.985Z,1.27
2019-03-03T10:49:45.527Z,1.40
2019-03-03T10:52:54.551Z,1.50
2019-03-03T10:55:49.718Z,1.60
2019-03-03T10:58:55.317Z,1.20
2019-03-03T11:02:00.800Z,1.33
2019-03-03T11:05:13.855Z,1.40
2019-03-03T11:08:19.807Z,1.47
2019-03-03T11:11:31.869Z,1.30
2019-03-03T11:14:41.638Z,1.57
2019-03-03T11:17:54.294Z,1.50
2019-03-03T11:21:16.168Z,1.50
2019-03-03T11:24:20.846Z,1.30
2019-03-03T11:27:18.294Z,1.60
2019-03-03T11:30:23.105Z,1.63
2019-03-03T11:33:42.117Z,1.67
2019-03-03T11:36:47.528Z,1.50
2019-03-03T11:39:45.772Z,1.57
2019-03-03T11:42:45.681Z,1.60
2019-03-03T11:45:52.320Z,1.47
2019-03-03T11:49:02.561Z,1.80
2019-03-03T11:52:08.185Z,1.40
2019-03-03T11:55:07.570Z,1.50
2019-03-03T11:58:04.018Z,1.73
2019-03-03T12:01:10.175Z,1.50
2019-03-03T12:04:20.563Z,1.40
2019-03-03T12:07:33.261Z,1.60
2019-03-03T12:10:39.957Z,1.67
2019-03-03T12:13:49.894Z,1.80
2019-03-03T12:17:09.469Z,1.77
2019-03-03T12:20:19.316Z,1.67
2019-03-03T12:23:29.234Z,2.13
2019-03-03T12:26:45.319Z,1.83
2019-03-03T12:29:58.099Z,1.60
2019-03-03T12:33:10.934Z,1.80
2019-03-03T12:36:23.735Z,1.60
2019-03-03T12:39:18.451Z,1.53
2019-03-03T12:42:28.561Z,1.30
2019-03-03T12:45:26.229Z,1.30
2019-03-03T12:48:36.425Z,1.77
2019-03-03T12:51:41.861Z,1.50
2019-03-03T12:54:52.133Z,2.00
2019-03-03T12:58:01.668Z,1.47
2019-03-03T13:01:14.839Z,1.67
2019-03-03T13:04:22.093Z,1.57
2019-03-03T13:07:27.990Z,1.70
2019-03-03T13:10:47.472Z,1.70
2019-03-03T13:13:42.405Z,1.70
2019-03-03T13:17:04.380Z,1.67
2019-03-03T13:20:00.887Z,1.47
2019-03-03T13:23:26.290Z,1.50
2019-03-03T13:26:31.325Z,1.50
2019-03-03T13:29:44.330Z,1.80
2019-03-03T13:32:57.008Z,1.53
2019-03-03T13:36:02.783Z,1.70
2019-03-03T13:39:12.902Z,1.30
2019-03-03T13:42:19.683Z,1.73
2019-03-03T13:45:10.434Z,1.27
2019-03-03T13:47:58.506Z,1.40
2019-03-03T13:50:46.924Z,1.40
2019-03-03T13:53:34.933Z,1.70
2019-03-03T13:56:23.003Z,1.50
2019-03-03T13:59:10.963Z,1.50
2019-03-03T14:01:59.176Z,1.77
2019-03-03T14:04:47.396Z,1.83
2019-03-03T14:07:35.583Z,1.40
2019-03-03T14:10:23.382Z,1.87
2019-03-03T14:13:11.482Z,1.20
2019-03-03T14:15:59.774Z,1.40
2019-03-03T14:18:47.971Z,4.30
2019-03-03T14:21:36.275Z,1.70
2019-03-03T14:24:24.193Z,1.53
2019-03-03T14:27:12.152Z,1.40
2019-03-03T14:30:00.341Z,1.10
2019-03-03T14:32:48.500Z,1.33
2019-03-03T14:35:36.383Z,1.20
2019-03-03T14:38:24.273Z,1.63
2019-03-03T14:41:12.943Z,1.30
2019-03-03T14:44:01.094Z,1.47
2019-03-03T14:46:49.235Z,1.10
2019-03-03T14:49:37.440Z,1.33
2019-03-03T14:52:25.373Z,1.13
2019-03-03T14:55:15.005Z,1.30
2019-03-03T14:58:03.155Z,1.23
2019-03-03T15:00:51.430Z,1.20
2019-03-03T15:03:38.969Z,1.50
2019-03-03T15:06:26.736Z,1.30
2019-03-03T15:09:20.985Z,1.33
2019-03-03T15:12:09.268Z,1.20
2019-03-03T15:14:57.124Z,1.20
2019-03-03T15:17:45.269Z,1.10
2019-03-03T15:20:33.722Z,1.23
2019-03-03T15:23:21.760Z,1.70
2019-03-03T15:26:09.421Z,1.30
2019-03-03T15:28:57.698Z,1.07
2019-03-03T15:31:45.600Z,1.00
2019-03-03T15:34:33.477Z,1.10
2019-03-03T15:37:21.612Z,1.17
2019-03-03T15:40:10.907Z,0.90
2019-03-03T15:42:59.047Z,1.23
2019-03-03T15:45:47.129Z,1.07
2019-03-03T15:48:35.123Z,1.40
2019-03-03T15:51:23.455Z,1.00
2019-03-03T15:54:11.731Z,1.00
2019-03-03T15:56:59.632Z,1.47
2019-03-03T15:59:47.337Z,1.67
2019-03-03T16:02:34.975Z,1.40
2019-03-03T16:05:22.865Z,1.20
2019-03-03T16:08:12.038Z,0.90
2019-03-03T16:11:00.072Z,1.43
2019-03-03T16:13:47.999Z,1.27
2019-03-03T16:16:35.581Z,1.20
2019-03-03T16:19:23.574Z,1.00
2019-03-03T16:22:11.968Z,1.00
2019-03-03T16:24:59.756Z,1.00
2019-03-03T16:27:47.957Z,1.17
2019-03-03T16:30:38.252Z,0.90
2019-03-03T16:33:26.438Z,0.90
2019-03-03T16:36:14.914Z,1.10
2019-03-03T16:39:02.788Z,0.97
2019-03-03T16:41:51.061Z,1.00
2019-03-03T16:44:38.886Z,0.90
2019-03-03T16:47:26.723Z,0.90
2019-03-03T16:50:16.276Z,0.87
2019-03-03T16:53:04.258Z,1.10
2019-03-03T16:55:52.270Z,0.93
2019-03-03T16:58:40.188Z,1.07
2019-03-03T17:01:28.171Z,1.27
2019-03-03T17:04:16.014Z,1.00
2019-03-03T17:07:04.009Z,1.00
2019-03-03T17:09:52.203Z,0.90
2019-03-03T17:12:40.726Z,0.97
2019-03-03T17:15:28.660Z,1.00
2019-03-03T17:18:16.976Z,1.30
2019-03-03T17:21:04.734Z,1.30
2019-03-03T17:23:52.992Z,1.47
2019-03-03T17:26:40.968Z,1.30
2019-03-03T17:29:29.108Z,1.30
2019-03-03T17:32:17.014Z,1.13
2019-03-03T17:35:05.040Z,1.20
2019-03-03T17:37:53.310Z,1.73
2019-03-03T17:40:41.115Z,2.00
2019-03-03T17:43:28.717Z,1.80
2019-03-03T17:46:16.724Z,1.17
2019-03-03T17:49:04.824Z,1.20
2019-03-03T17:51:52.915Z,2.10
2019-03-03T17:54:40.846Z,1.33
2019-03-03T17:57:29.026Z,2.80
2019-03-03T18:00:22.619Z,3.13
2019-03-03T18:03:10.552Z,2.83
2019-03-03T18:05:59.342Z,2.80
2019-03-03T18:08:47.166Z,2.60
2019-03-03T18:11:35.308Z,3.07
2019-03-03T18:14:23.618Z,3.30
2019-03-03T18:17:11.637Z,3.30
2019-03-03T18:19:59.728Z,1.80
2019-03-03T18:22:47.779Z,1.97
2019-03-03T18:25:35.824Z,1.57
2019-03-03T18:28:24.071Z,2.93
2019-03-03T18:31:12.060Z,4.30
2019-03-03T18:34:00.025Z,3.67
2019-03-03T18:36:48.355Z,2.73
2019-03-03T18:39:36.452Z,3.03
2019-03-03T18:42:24.342Z,3.00
2019-03-03T18:45:13.267Z,3.20
2019-03-03T18:48:01.361Z,2.67
2019-03-03T18:50:49.098Z,3.27
2019-03-03T18:53:37.300Z,2.80
2019-03-03T18:56:25.312Z,3.13
2019-03-03T18:59:13.554Z,7.57
2019-03-03T19:02:01.495Z,3.93
2019-03-03T19:04:49.484Z,2.30
2019-03-03T19:07:38.198Z,2.27
2019-03-03T19:10:26.277Z,2.60
2019-03-03T19:13:14.156Z,2.30
2019-03-03T19:16:02.155Z,1.90
2019-03-03T19:18:50.041Z,2.30
2019-03-03T19:21:38.391Z,2.23
2019-03-03T19:24:26.281Z,2.23
2019-03-03T19:27:14.482Z,2.57
2019-03-03T19:30:02.794Z,2.17
2019-03-03T19:32:53.901Z,1.93
2019-03-03T19:35:41.923Z,2.10
2019-03-03T19:38:30.169Z,3.90
2019-03-03T19:41:18.672Z,1.77
2019-03-03T19:44:06.740Z,1.70
2019-03-03T19:46:54.696Z,1.80
2019-03-03T19:49:43.095Z,1.40
2019-03-03T19:52:31.397Z,1.37
2019-03-03T19:55:19.506Z,1.27
2019-03-03T19:58:07.195Z,1.17
2019-03-03T20:00:55.607Z,1.20
2019-03-03T20:03:43.501Z,1.53
2019-03-03T20:06:31.610Z,0.93
2019-03-03T20:09:20.736Z,1.20
2019-03-03T20:12:09.115Z,1.30
2019-03-03T20:14:56.642Z,1.20
2019-03-03T20:17:44.892Z,1.00
2019-03-03T20:20:32.846Z,1.20
2019-03-03T20:23:21.054Z,1.30
2019-03-03T20:26:09.042Z,1.30
2019-03-03T20:28:56.711Z,1.40
2019-03-03T20:31:44.673Z,1.40
2019-03-03T20:34:32.816Z,1.43
2019-03-03T20:37:21.191Z,1.30
2019-03-03T20:40:11.645Z,1.40
2019-03-03T20:42:59.520Z,1.33
2019-03-03T20:45:47.349Z,1.20
2019-03-03T20:48:35.968Z,1.40
2019-03-03T20:51:23.896Z,1.10
2019-03-03T20:54:12.084Z,1.60
2019-03-03T20:57:00.027Z,0.90
2019-03-03T20:59:48.194Z,1.10
2019-03-03T21:02:36.132Z,2.03
2019-03-03T21:05:24.075Z,2.30
2019-03-03T21:08:12.335Z,2.80
2019-03-03T21:11:00.219Z,2.80
2019-03-03T21:13:48.257Z,2.60
2019-03-03T21:16:36.169Z,3.40
2019-03-03T21:19:24.161Z,2.90
2019-03-03T21:22:11.978Z,3.07
2019-03-03T21:24:59.725Z,2.80
2019-03-03T21:27:47.812Z,3.53
2019-03-03T21:30:36.011Z,3.10
2019-03-03T21:33:24.072Z,3.33
2019-03-03T21:36:12.038Z,2.90
2019-03-03T21:38:59.762Z,3.37
2019-03-03T21:41:47.724Z,3.40
2019-03-03T21:44:35.698Z,3.10
2019-03-03T21:47:23.749Z,2.87
2019-03-03T21:50:13.995Z,3.03
2019-03-03T21:53:01.956Z,3.10
2019-03-03T21:55:50.120Z,2.93
2019-03-03T21:58:37.999Z,2.87
2019-03-03T22:01:25.723Z,2.67
2019-03-03T22:04:14.069Z,2.37
2019-03-03T22:07:02.308Z,2.57
2019-03-03T22:09:50.776Z,2.90
2019-03-03T22:12:38.680Z,2.60
2019-03-03T22:15:26.833Z,2.60
2019-03-03T22:18:14.567Z,2.63
2019-03-03T22:21:02.893Z,2.87
2019-03-03T22:23:50.831Z,2.80
2019-03-03T22:26:39.045Z,2.93
2019-03-03T22:29:27.274Z,3.27
2019-03-03T22:32:15.145Z,2.97
2019-03-03T22:35:03.866Z,2.53
2019-03-03T22:37:52.724Z,2.43
2019-03-03T22:40:40.578Z,2.90
2019-03-03T22:43:28.146Z,2.50
2019-03-03T22:46:16.300Z,2.67
2019-03-03T22:49:04.399Z,3.00
2019-03-03T22:51:52.031Z,2.70
2019-03-03T22:54:39.950Z,2.70
2019-03-03T22:57:28.011Z,2.47
2019-03-03T23:00:26.603Z,3.00
2019-03-03T23:03:17.655Z,2.30
2019-03-03T23:06:25.704Z,2.00
2019-03-03T23:09:55.334Z,2.53
2019-03-03T23:13:08.254Z,2.73
2019-03-03T23:16:17.575Z,2.27
2019-03-03T23:19:27.836Z,2.50
2019-03-03T23:23:02.352Z,2.37
2019-03-03T23:25:50.204Z,3.10
2019-03-03T23:28:38.296Z,2.67
2019-03-03T23:31:26.455Z,2.30
2019-03-03T23:34:14.383Z,2.83
2019-03-03T23:37:02.635Z,1.93
2019-03-03T23:39:50.843Z,2.63
2019-03-03T23:42:39.219Z,2.20
2019-03-03T23:45:27.033Z,1.80
2019-03-03T23:48:14.977Z,1.70
2019-03-03T23:51:02.945Z,1.47
2019-03-03T23:53:51.048Z,1.30
2019-03-03T23:56:39.313Z,1.50
2019-03-03T23:59:27.749Z,1.20
